Time;durP1;ratioP1;P1;durP2;ratioP2;P2;SDS_P1;SDS_P2;PMS_P1;PMS_P2;Temp;Humidity;BMP_temperature;BMP_pressure;BME280_temperature;BME280_humidity;BME280_pressure;Samples;Min_cycle;Max_cycle;Signal;HPM_P1;HPM_P2
2022/05/11 00:01:29;;;;;;;19.13;13.07;;;461.50;2380.80;;;;;;5092447;28;20044;-83
2022/05/11 00:03:56;;;;;;;18.42;12.32;;;461.40;2380.80;;;;;;5093681;28;20111;-83
2022/05/11 00:06:22;;;;;;;14.32;11.32;;;461.40;2380.80;;;;;;5092770;28;20023;-83
2022/05/11 00:08:48;;;;;;;14.85;11.23;;;461.40;2380.80;;;;;;5092793;28;20120;-83
2022/05/11 00:11:15;;;;;;;17.30;11.70;;;461.20;2380.80;;;;;;5092742;28;20024;-85
2022/05/11 00:13:41;;;;;;;17.58;13.02;;;461.20;2380.80;;;;;;5092554;28;20034;-83
2022/05/11 00:16:07;;;;;;;13.48;10.85;;;461.10;2380.80;;;;;;5092434;28;20028;-83
2022/05/11 00:18:33;;;;;;;19.92;12.80;;;461.10;2380.80;;;;;;5092549;28;20024;-83
2022/05/11 00:20:58;;;;;;;19.00;13.43;;;461.00;2380.80;;;;;;5092421;28;20073;-84
2022/05/11 00:23:24;;;;;;;16.35;12.63;;;460.90;2380.80;;;;;;5092515;28;20024;-83
2022/05/11 00:25:50;;;;;;;18.13;13.43;;;460.90;2380.80;;;;;;5092241;28;20081;-83
2022/05/11 00:28:16;;;;;;;20.80;14.73;;;460.90;2380.80;;;;;;5092621;28;20036;-84
2022/05/11 00:30:42;;;;;;;14.73;13.13;;;460.90;2380.80;;;;;;5092089;28;20024;-84
2022/05/11 00:33:10;;;;;;;22.90;14.90;;;460.90;2380.80;;;;;;5092626;28;20345;-84
2022/05/11 00:35:36;;;;;;;21.38;14.13;;;460.90;2380.80;;;;;;5092087;28;20028;-83
2022/05/11 00:38:03;;;;;;;20.92;14.48;;;460.80;2380.80;;;;;;5092396;28;20079;-84
2022/05/11 00:40:31;;;;;;;18.58;14.25;;;460.90;2380.80;;;;;;5092001;28;20037;-82
2022/05/11 00:42:57;;;;;;;19.08;15.02;;;460.90;2380.80;;;;;;5096050;28;20117;-84
2022/05/11 00:45:23;;;;;;;19.95;14.63;;;460.90;2380.80;;;;;;5097667;28;20073;-84
2022/05/11 00:47:58;;;;;;;18.25;13.75;;;460.80;2380.80;;;;;;5095493;28;20040;-84
2022/05/11 00:50:29;;;;;;;21.90;15.33;;;435.90;2355.20;;;;;;5096284;28;20016;-83
2022/05/11 00:53:09;;;;;;;21.77;15.63;;;435.50;2355.20;;;;;;5096203;28;20059;-83
2022/05/11 00:55:40;;;;;;;23.85;15.05;;;410.20;2355.20;;;;;;5096111;28;20109;-84
2022/05/11 00:58:26;;;;;;;20.35;15.18;;;410.30;2355.20;;;;;;5096344;28;20030;-84
2022/05/11 01:00:53;;;;;;;18.87;14.43;;;410.50;2355.20;;;;;;5096811;28;20059;-82
2022/05/11 01:03:30;;;;;;;21.95;15.80;;;410.30;2355.20;;;;;;5096314;28;20275;-83
2022/05/11 01:05:57;;;;;;;23.60;17.17;;;410.20;2355.20;;;;;;5095529;28;20028;-84
2022/05/11 01:08:24;;;;;;;27.02;19.10;;;410.20;2355.20;;;;;;5095839;28;20098;-84
2022/05/11 01:10:50;;;;;;;27.55;18.30;;;410.30;2355.20;;;;;;5095823;28;20032;-84
2022/05/11 01:13:18;;;;;;;26.33;19.15;;;410.20;2355.20;;;;;;5095516;28;20032;-83
2022/05/11 01:15:48;;;;;;;35.60;18.83;;;409.90;2355.20;;;;;;5095825;28;20073;-84
2022/05/11 01:18:14;;;;;;;24.60;19.13;;;409.70;2355.20;;;;;;5095889;28;20020;-84
2022/05/11 01:20:40;;;;;;;29.50;19.58;;;410.00;2355.20;;;;;;5095443;28;20090;-84
2022/05/11 01:23:33;;;;;;;31.70;19.70;;;409.90;2355.20;;;;;;5095202;28;20509;-84
2022/05/11 01:25:59;;;;;;;23.30;19.17;;;409.90;2355.20;;;;;;5095672;28;20120;-84
2022/05/11 01:28:25;;;;;;;26.27;19.63;;;409.80;2355.20;;;;;;5095397;28;20042;-84
2022/05/11 01:30:59;;;;;;;29.50;19.73;;;409.70;2355.20;;;;;;5095222;28;20481;-84
2022/05/11 01:33:24;;;;;;;27.00;19.10;;;384.90;2329.60;;;;;;5095409;28;20024;-84
2022/05/11 01:36:08;;;;;;;27.88;18.55;;;409.60;2355.20;;;;;;5096382;28;20031;-84
2022/05/11 01:38:46;;;;;;;28.52;19.30;;;409.60;2355.20;;;;;;5095326;28;20059;-84
2022/05/11 01:41:31;;;;;;;24.33;18.80;;;409.60;2355.20;;;;;;5093954;28;20036;-83
2022/05/11 01:43:57;;;;;;;29.17;20.50;;;409.60;2355.20;;;;;;5095300;28;20143;-84
2022/05/11 01:46:23;;;;;;;33.80;20.75;;;409.70;2355.20;;;;;;5095098;28;20031;-82
2022/05/11 01:48:49;;;;;;;30.75;21.90;;;409.70;2355.20;;;;;;5095382;28;20101;-85
2022/05/11 01:51:17;;;;;;;30.23;21.88;;;409.70;2355.20;;;;;;5095064;28;20016;-84
2022/05/11 01:53:43;;;;;;;31.05;22.58;;;409.70;2355.20;;;;;;5093930;28;20475;-84
2022/05/11 01:56:09;;;;;;;30.23;20.95;;;409.80;2355.20;;;;;;5095409;28;20020;-85
2022/05/11 01:58:36;;;;;;;27.83;21.02;;;409.90;2355.20;;;;;;5094989;28;20581;-84
2022/05/11 02:01:02;;;;;;;28.23;22.15;;;410.00;2355.20;;;;;;5094934;28;20530;-84
2022/05/11 02:03:28;;;;;;;34.63;22.65;;;410.00;2355.20;;;;;;5094714;28;20094;-83
2022/05/11 02:08:43;;;;;;;31.85;21.73;;;410.00;2355.20;;;;;;5096179;28;20065;-84
2022/05/11 02:11:10;;;;;;;29.85;21.55;;;409.80;2355.20;;;;;;5094453;28;20054;-84
2022/05/11 02:13:35;;;;;;;30.70;22.50;;;409.90;2355.20;;;;;;5095677;28;20035;-84
2022/05/11 02:16:02;;;;;;;27.73;21.35;;;409.90;2355.20;;;;;;5094280;28;20024;-84
2022/05/11 02:18:29;;;;;;;29.35;22.65;;;409.70;2355.20;;;;;;5094262;28;20062;-84
2022/05/11 02:20:54;;;;;;;31.33;21.80;;;409.70;2355.20;;;;;;5094380;28;20030;-81
2022/05/11 02:23:22;;;;;;;33.25;22.38;;;409.70;2355.20;;;;;;5094618;28;20127;-84
2022/05/11 02:25:50;;;;;;;33.95;23.25;;;409.70;2355.20;;;;;;5094352;28;20020;-84
2022/05/11 02:28:17;;;;;;;33.58;23.27;;;409.60;2355.20;;;;;;5094450;28;20071;-84
2022/05/11 02:30:44;;;;;;;32.75;22.45;;;384.60;2329.60;;;;;;5093601;28;20514;-83
2022/05/11 02:33:11;;;;;;;31.15;22.73;;;384.60;2329.60;;;;;;5094046;28;20024;-84
2022/05/11 02:35:38;;;;;;;29.50;22.70;;;384.90;2329.60;;;;;;5093902;28;20120;-83
2022/05/11 02:38:08;;;;;;;34.33;22.15;;;409.70;2355.20;;;;;;5094270;28;20024;-84
2022/05/11 02:40:38;;;;;;;33.05;23.17;;;409.70;2355.20;;;;;;5095232;28;20035;-84
2022/05/11 02:43:05;;;;;;;28.65;22.20;;;409.60;2355.20;;;;;;5095062;28;20042;-84
2022/05/11 02:45:33;;;;;;;33.10;23.42;;;409.60;2355.20;;;;;;5093964;28;20047;-84
2022/05/11 02:48:02;;;;;;;28.45;22.10;;;409.70;2355.20;;;;;;5094022;28;20036;-84
2022/05/11 02:50:52;;;;;;;27.83;20.70;;;409.80;2355.20;;;;;;5093854;28;20103;-84
2022/05/11 02:53:18;;;;;;;40.10;24.15;;;409.70;2355.20;;;;;;5095450;28;20035;-85
2022/05/11 02:55:47;;;;;;;33.00;22.33;;;409.60;2355.20;;;;;;5094727;28;20020;-84
2022/05/11 02:58:15;;;;;;;38.72;23.02;;;409.70;2355.20;;;;;;5094175;28;20016;-85
2022/05/11 03:00:44;;;;;;;29.98;21.70;;;409.60;2355.20;;;;;;5093641;28;20052;-84
2022/05/11 03:03:11;;;;;;;35.38;21.95;;;409.60;2355.20;;;;;;5093475;28;20027;-81
2022/05/11 03:05:39;;;;;;;31.15;23.20;;;409.70;2355.20;;;;;;5093416;28;20028;-82
2022/05/11 03:08:05;;;;;;;33.90;22.33;;;409.80;2355.20;;;;;;5094138;28;20032;-82
2022/05/11 03:10:31;;;;;;;28.88;21.38;;;409.80;2355.20;;;;;;5093547;28;20043;-81
2022/05/11 03:12:58;;;;;;;35.15;22.13;;;409.80;2355.20;;;;;;5093654;28;20052;-82
2022/05/11 03:15:24;;;;;;;29.48;22.20;;;409.80;2355.20;;;;;;5093495;28;20054;-82
2022/05/11 03:17:51;;;;;;;34.05;22.85;;;409.70;2355.20;;;;;;5093265;28;20060;-82
2022/05/11 03:20:18;;;;;;;29.85;21.83;;;409.80;2355.20;;;;;;5093362;28;20028;-84
2022/05/11 03:22:44;;;;;;;29.60;22.05;;;409.80;2355.20;;;;;;5093517;28;20089;-83
2022/05/11 03:25:11;;;;;;;35.70;21.55;;;409.80;2355.20;;;;;;5093154;28;20110;-82
2022/05/11 03:27:37;;;;;;;30.42;21.65;;;410.00;2355.20;;;;;;5093101;28;20459;-82
2022/05/11 03:30:04;;;;;;;28.98;21.40;;;409.90;2355.20;;;;;;5092949;28;20024;-82
2022/05/11 03:35:14;;;;;;;30.33;21.05;;;409.90;2355.20;;;;;;5094291;28;20494;-82
2022/05/11 03:37:40;;;;;;;30.60;22.38;;;409.90;2355.20;;;;;;5092425;28;20024;-83
2022/05/11 03:40:08;;;;;;;29.27;21.15;;;409.80;2355.20;;;;;;5092724;28;20429;-82
2022/05/11 03:42:36;;;;;;;26.63;21.45;;;409.90;2355.20;;;;;;5092941;28;20039;-82
2022/05/11 03:45:12;;;;;;;29.33;20.90;;;409.80;2355.20;;;;;;5093100;28;20020;-82
2022/05/11 03:47:39;;;;;;;32.33;22.40;;;409.80;2355.20;;;;;;5092492;28;20032;-82
2022/05/11 03:50:06;;;;;;;34.17;22.92;;;409.80;2355.20;;;;;;5093826;28;20058;-82
2022/05/11 03:52:32;;;;;;;33.47;20.92;;;409.80;2355.20;;;;;;5092411;28;20042;-80
2022/05/11 03:54:57;;;;;;;37.13;23.27;;;409.80;2355.20;;;;;;5092673;28;20016;-82
2022/05/11 03:57:23;;;;;;;32.95;23.80;;;409.80;2355.20;;;;;;5092739;28;20024;-82
2022/05/11 03:59:49;;;;;;;31.77;22.92;;;409.70;2355.20;;;;;;5093305;28;20115;-81
2022/05/11 04:02:15;;;;;;;35.60;24.10;;;409.70;2355.20;;;;;;5092135;28;20044;-82
2022/05/11 04:04:40;;;;;;;36.05;23.23;;;409.70;2355.20;;;;;;5092116;28;20024;-82
2022/05/11 04:07:06;;;;;;;32.17;21.70;;;409.90;2355.20;;;;;;5092110;28;20399;-82
2022/05/11 04:09:32;;;;;;;35.40;23.60;;;409.80;2355.20;;;;;;5091968;28;20023;-81
2022/05/11 04:11:57;;;;;;;38.72;22.30;;;409.90;2355.20;;;;;;5091983;28;20020;-81
2022/05/11 04:14:23;;;;;;;37.42;22.38;;;409.90;2355.20;;;;;;5093218;28;20036;-82
2022/05/11 04:16:59;;;;;;;33.10;23.92;;;410.00;2355.20;;;;;;5092928;28;20020;-83
2022/05/11 04:19:28;;;;;;;32.25;23.98;;;410.20;2355.20;;;;;;5092624;28;20028;-83
2022/05/11 04:21:55;;;;;;;31.92;23.35;;;410.20;2355.20;;;;;;5093194;28;20099;-82
2022/05/11 04:24:21;;;;;;;36.08;24.80;;;410.30;2355.20;;;;;;5093567;28;20031;-82
2022/05/11 04:26:46;;;;;;;38.58;23.02;;;410.00;2355.20;;;;;;5092026;28;20047;-82
2022/05/11 04:29:12;;;;;;;30.35;22.27;;;410.20;2355.20;;;;;;5092352;28;20415;-83
2022/05/11 04:31:38;;;;;;;33.10;22.80;;;410.40;2355.20;;;;;;5092010;28;20032;-82
2022/05/11 04:34:04;;;;;;;31.95;24.02;;;410.50;2355.20;;;;;;5092012;28;20016;-80
2022/05/11 04:36:30;;;;;;;36.90;23.38;;;410.50;2355.20;;;;;;5091698;28;20032;-84
2022/05/11 04:38:56;;;;;;;31.98;23.30;;;435.20;2355.20;;;;;;5092707;28;20016;-85
2022/05/11 04:41:23;;;;;;;24.98;20.00;;;435.30;2355.20;;;;;;5093199;28;20521;-85
2022/05/11 04:43:49;;;;;;;27.42;20.98;;;435.30;2355.20;;;;;;5092973;28;20556;-83
2022/05/11 04:46:15;;;;;;;28.70;21.90;;;435.40;2355.20;;;;;;5093438;28;20028;-84
2022/05/11 04:48:42;;;;;;;28.05;20.15;;;435.50;2355.20;;;;;;5092165;28;20140;-87
2022/05/11 04:51:08;;;;;;;26.40;19.95;;;435.50;2355.20;;;;;;5092078;28;20020;-86
2022/05/11 04:53:34;;;;;;;26.98;18.45;;;435.60;2355.20;;;;;;5093290;28;20034;-88
2022/05/11 04:55:59;;;;;;;34.83;17.92;;;435.70;2355.20;;;;;;5091933;28;20070;-85
2022/05/11 04:58:25;;;;;;;32.15;20.88;;;435.80;2355.20;;;;;;5092971;28;20024;-84
2022/05/11 05:00:51;;;;;;;31.20;19.55;;;435.80;2355.20;;;;;;5091548;28;20111;-83
2022/05/11 05:03:17;;;;;;;26.88;18.50;;;435.80;2355.20;;;;;;5091548;28;20023;-82
2022/05/11 05:05:43;;;;;;;21.40;16.45;;;435.80;2355.20;;;;;;5090877;28;20032;-79
2022/05/11 05:08:09;;;;;;;24.52;18.80;;;435.90;2355.20;;;;;;5090366;28;20032;-77
2022/05/11 05:10:36;;;;;;;23.00;17.50;;;435.90;2355.20;;;;;;5089492;28;20020;-81
2022/05/11 05:13:06;;;;;;;20.10;16.45;;;436.00;2355.20;;;;;;5089877;28;20373;-83
2022/05/11 05:15:34;;;;;;;23.73;16.65;;;436.10;2355.20;;;;;;5091105;28;20021;-83
2022/05/11 05:18:01;;;;;;;23.27;15.48;;;436.10;2355.20;;;;;;5091102;28;20498;-86
2022/05/11 05:20:27;;;;;;;17.98;13.50;;;436.10;2355.20;;;;;;5092370;28;20036;-81
2022/05/11 05:22:53;;;;;;;20.77;15.02;;;460.80;2380.80;;;;;;5086689;28;20025;-80
2022/05/11 05:25:19;;;;;;;20.50;15.55;;;460.90;2380.80;;;;;;5090828;28;20032;-90
2022/05/11 05:27:45;;;;;;;22.33;14.10;;;460.90;2380.80;;;;;;5092919;28;20059;-84
2022/05/11 05:32:55;;;;;;;19.55;13.82;;;460.90;2380.80;;;;;;5093742;28;20047;-82
2022/05/11 05:35:21;;;;;;;21.38;14.30;;;461.00;2380.80;;;;;;5094338;28;20032;-80
2022/05/11 05:37:47;;;;;;;18.75;14.85;;;461.00;2380.80;;;;;;5094699;28;20024;-82
2022/05/11 05:40:14;;;;;;;18.88;14.00;;;461.10;2380.80;;;;;;5094538;28;20035;-82
2022/05/11 05:42:40;;;;;;;24.80;14.65;;;461.10;2380.80;;;;;;5094460;28;20082;-83
2022/05/11 05:45:07;;;;;;;19.90;13.57;;;461.20;2380.80;;;;;;5093875;28;20024;-81
2022/05/11 05:47:33;;;;;;;14.65;12.20;;;461.20;2380.80;;;;;;5095494;28;20027;-84
2022/05/11 05:49:59;;;;;;;16.77;13.68;;;461.20;2380.80;;;;;;5095122;28;20069;-80
2022/05/11 05:52:26;;;;;;;19.15;14.63;;;461.30;2380.80;;;;;;5094191;28;20020;-84
2022/05/11 05:54:55;;;;;;;19.65;14.88;;;461.30;2380.80;;;;;;5094395;28;20023;-83
2022/05/11 05:57:21;;;;;;;18.08;14.00;;;461.40;2380.80;;;;;;5106578;28;20508;-84
2022/05/11 05:59:48;;;;;;;17.30;13.60;;;461.40;2380.80;;;;;;5094294;28;20069;-80
2022/05/11 06:02:16;;;;;;;18.65;14.07;;;461.40;2380.80;;;;;;5094334;28;20039;-85
2022/05/11 06:04:47;;;;;;;20.90;13.45;;;461.50;2380.80;;;;;;5093449;28;20032;-79
2022/05/11 06:07:15;;;;;;;25.95;14.25;;;461.60;2380.80;;;;;;5073856;28;20407;-78
2022/05/11 06:09:42;;;;;;;20.02;13.93;;;461.60;2380.80;;;;;;5073796;28;20028;-81
2022/05/11 06:12:10;;;;;;;20.02;11.50;;;461.70;2380.80;;;;;;5073781;28;20036;-81
2022/05/11 06:14:36;;;;;;;20.65;12.63;;;486.40;2380.80;;;;;;5073879;28;20464;-80
2022/05/11 06:17:03;;;;;;;18.52;13.68;;;486.40;2380.80;;;;;;5073582;28;20027;-79
2022/05/11 06:19:29;;;;;;;15.95;12.18;;;486.50;2380.80;;;;;;5074598;28;20016;-78
2022/05/11 06:21:55;;;;;;;16.00;13.13;;;486.60;2380.80;;;;;;5074346;28;20021;-80
2022/05/11 06:24:21;;;;;;;19.65;11.65;;;486.70;2380.80;;;;;;5072840;28;20155;-78
2022/05/11 06:26:47;;;;;;;16.05;13.15;;;486.70;2380.80;;;;;;5073293;28;20028;-80
2022/05/11 06:29:13;;;;;;;16.05;12.23;;;486.70;2380.80;;;;;;5073592;28;20185;-79
2022/05/11 06:31:39;;;;;;;19.27;12.35;;;486.70;2380.80;;;;;;5073114;28;20028;-79
2022/05/11 06:34:06;;;;;;;17.23;11.98;;;486.80;2380.80;;;;;;5074553;28;20072;-78
2022/05/11 06:36:31;;;;;;;16.25;11.48;;;486.80;2380.80;;;;;;5082534;28;20063;-79
2022/05/11 06:38:57;;;;;;;14.15;11.25;;;486.90;2380.80;;;;;;5092693;28;20056;-80
2022/05/11 06:41:27;;;;;;;16.52;12.70;;;487.00;2380.80;;;;;;5094082;28;20340;-79
2022/05/11 06:43:54;;;;;;;17.85;11.13;;;487.10;2380.80;;;;;;5092583;28;20039;-79
2022/05/11 06:46:21;;;;;;;14.82;10.32;;;487.20;2380.80;;;;;;5087474;28;20024;-78
2022/05/11 06:48:48;;;;;;;17.23;10.77;;;487.30;2380.80;;;;;;5092140;28;20051;-79
2022/05/11 06:51:15;;;;;;;14.93;11.05;;;512.00;2380.80;;;;;;5093152;28;20108;-79
2022/05/11 06:59:22;;;;;;;13.43;8.77;;;512.40;2380.80;;;;;;5093025;28;20027;-86
2022/05/11 07:01:52;;;;;;;13.63;10.43;;;512.30;2380.80;;;;;;5091153;28;20086;-78
2022/05/11 07:04:22;;;;;;;16.75;10.05;;;512.60;2380.80;;;;;;5092822;28;20388;-83
2022/05/11 07:06:49;;;;;;;18.85;9.65;;;512.70;2380.80;;;;;;5093273;28;20024;-82
2022/05/11 07:09:16;;;;;;;15.85;10.50;;;512.80;2380.80;;;;;;5093187;28;20028;-83
2022/05/11 07:14:26;;;;;;;13.32;9.27;;;512.60;2380.80;;;;;;5094960;28;20115;-82
2022/05/11 07:16:52;;;;;;;13.45;9.20;;;537.80;2406.40;;;;;;5093577;28;20020;-83
2022/05/11 07:19:21;;;;;;;16.88;10.40;;;537.80;2406.40;;;;;;5093431;28;20047;-83
2022/05/11 07:21:47;;;;;;;19.63;9.90;;;537.90;2406.40;;;;;;5093319;28;20115;-80
2022/05/11 07:24:12;;;;;;;18.00;9.68;;;538.00;2406.40;;;;;;5092998;28;20097;-82
2022/05/11 07:26:38;;;;;;;17.08;9.48;;;538.10;2406.40;;;;;;5092998;28;20074;-82
2022/05/11 07:29:04;;;;;;;14.18;8.77;;;538.20;2406.40;;;;;;5093126;28;20494;-82
2022/05/11 07:31:30;;;;;;;13.85;9.30;;;538.40;2406.40;;;;;;5093180;28;20539;-83
2022/05/11 07:33:56;;;;;;;14.00;9.30;;;538.50;2406.40;;;;;;5094059;28;20140;-85
2022/05/11 07:36:24;;;;;;;12.07;9.32;;;563.20;2432.00;;;;;;5092590;28;20111;-82
2022/05/11 07:38:50;;;;;;;13.48;9.55;;;563.30;2432.00;;;;;;5092910;28;20035;-82
2022/05/11 07:41:16;;;;;;;11.60;8.85;;;563.40;2432.00;;;;;;5092384;28;20035;-84
2022/05/11 07:43:42;;;;;;;10.70;8.85;;;563.40;2432.00;;;;;;5092671;28;20032;-83
2022/05/11 07:46:08;;;;;;;13.50;8.93;;;563.60;2432.00;;;;;;5092875;28;20140;-84
2022/05/11 07:48:35;;;;;;;17.38;10.40;;;563.60;2432.00;;;;;;5092564;28;20039;-81
2022/05/11 07:51:01;;;;;;;11.07;8.32;;;563.70;2432.00;;;;;;5092052;28;20020;-84
2022/05/11 07:53:27;;;;;;;9.75;8.27;;;563.70;2432.00;;;;;;5092485;28;20020;-82
2022/05/11 07:59:52;;;;;;;9.80;8.18;;;563.70;2432.00;;;;;;5092347;28;20498;-81
2022/05/11 08:01:23;;;;;;;13.75;8.85;;;563.90;2432.00;;;;;;5093783;28;20131;-83
2022/05/11 08:03:49;;;;;;;13.05;8.57;;;564.00;2355.20;;;;;;5092528;28;20047;-82
2022/05/11 08:06:16;;;;;;;9.82;7.70;;;564.10;2380.80;;;;;;5092429;28;20028;-82
2022/05/11 08:08:43;;;;;;;12.05;7.72;;;564.10;2278.40;;;;;;5091667;28;20044;-83
2022/05/11 08:11:08;;;;;;;11.18;7.68;;;564.10;2355.20;;;;;;5093428;28;20030;-77
2022/05/11 08:13:34;;;;;;;11.50;7.93;;;588.80;2355.20;;;;;;5091841;28;20510;-81
2022/05/11 08:16:01;;;;;;;9.80;6.47;;;588.80;2278.40;;;;;;5090427;28;20117;-83
2022/05/11 08:18:27;;;;;;;10.13;6.80;;;589.00;2252.80;;;;;;5091584;28;20024;-82
2022/05/11 08:20:54;;;;;;;10.93;6.88;;;588.90;2227.20;;;;;;5091749;28;20119;-81
2022/05/11 08:23:21;;;;;;;9.00;5.30;;;588.90;2176.00;;;;;;5090649;28;20039;-79
2022/05/11 08:25:49;;;;;;;7.32;5.63;;;589.00;2150.40;;;;;;5091383;28;20052;-79
2022/05/11 08:28:18;;;;;;;9.85;6.43;;;589.10;2124.80;;;;;;5092687;28;20031;-80
2022/05/11 08:33:33;;;;;;;8.07;6.25;;;589.20;2124.80;;;;;;5092761;28;20399;-79
2022/05/11 08:36:06;;;;;;;8.82;5.55;;;589.30;2150.40;;;;;;5090581;28;20038;-78
2022/05/11 08:38:35;;;;;;;6.00;4.60;;;589.40;2150.40;;;;;;5090918;28;20020;-79
2022/05/11 08:41:26;;;;;;;7.75;5.15;;;589.30;1945.60;;;;;;5088503;28;20028;-79
2022/05/11 08:43:56;;;;;;;6.88;5.60;;;589.30;2022.40;;;;;;5089836;28;20047;-79
2022/05/11 08:46:59;;;;;;;10.73;6.07;;;589.40;2048.00;;;;;;5092459;28;20382;-80
2022/05/11 08:49:35;;;;;;;16.30;6.18;;;589.50;2022.40;;;;;;5091416;28;20028;-78
2022/05/11 08:52:02;;;;;;;;;;;589.40;2022.40;;;;;;5091808;28;20023;-80
2022/05/11 08:54:40;;;;;;;6.85;5.10;;;589.30;1945.60;;;;;;5090991;28;20371;-80
2022/05/11 08:57:23;;;;;;;11.45;5.75;;;589.40;1971.20;;;;;;5091179;28;20064;-79
2022/05/11 08:59:51;;;;;;;7.72;5.20;;;589.40;2048.00;;;;;;5092191;28;20123;-79
2022/05/11 09:02:49;;;;;;;7.53;5.35;;;589.50;2022.40;;;;;;5093415;28;20051;-80
2022/05/11 09:05:21;;;;;;;11.52;5.25;;;589.60;1996.80;;;;;;5095380;28;20029;-79
2022/05/11 09:07:49;;;;;;;6.25;5.22;;;589.60;1971.20;;;;;;5094806;28;20503;-80
2022/05/11 09:10:25;;;;;;;10.88;4.55;;;589.70;1971.20;;;;;;5094638;28;20027;-80
2022/05/11 09:12:52;;;;;;;;;;;614.40;1920.00;;;;;;5094913;28;20039;-80
2022/05/11 09:15:17;;;;;;;;;;;589.70;1920.00;;;;;;5095358;28;19904;-80
2022/05/11 09:17:44;;;;;;;11.23;5.57;;;614.50;1868.80;;;;;;5093999;28;20393;-79
2022/05/11 09:20:18;;;;;;;8.40;5.00;;;614.50;1868.80;;;;;;5095663;28;20427;-78
2022/05/11 09:22:57;;;;;;;13.90;4.93;;;614.60;1843.20;;;;;;5094694;28;20027;-78
2022/05/11 09:25:31;;;;;;;6.05;3.90;;;614.80;1792.00;;;;;;5095114;28;20143;-77
2022/05/11 09:28:24;;;;;;;7.53;4.93;;;614.80;1740.80;;;;;;5093522;28;20028;-79
2022/05/11 09:30:59;;;;;;;8.07;5.05;;;615.00;1740.80;;;;;;5091167;28;20043;-78
2022/05/11 09:33:37;;;;;;;8.30;4.80;;;615.10;1817.60;;;;;;5093838;28;20020;-78
2022/05/11 09:36:03;;;;;;;8.73;4.57;;;615.20;1843.20;;;;;;5094336;28;20058;-78
2022/05/11 09:38:35;;;;;;;9.15;4.53;;;615.30;1715.20;;;;;;5093492;28;20051;-77
2022/05/11 09:41:22;;;;;;;10.10;5.03;;;640.00;1638.40;;;;;;5093631;28;20506;-78
2022/05/11 09:43:58;;;;;;;12.48;4.47;;;640.20;1638.40;;;;;;5092342;28;20388;-79
2022/05/11 09:46:27;;;;;;;14.35;8.35;;;640.50;1612.80;;;;;;5093619;28;20113;-79
2022/05/11 09:49:09;;;;;;;7.85;5.20;;;640.50;1612.80;;;;;;5093994;28;20064;-78
2022/05/11 09:51:41;;;;;;;10.18;5.60;;;640.70;1587.20;;;;;;5093882;28;20468;-78
2022/05/11 09:54:20;;;;;;;7.10;3.95;;;640.90;1612.80;;;;;;5095169;28;20524;-80
2022/05/11 09:56:49;;;;;;;7.35;4.68;;;665.70;1561.60;;;;;;5093894;28;20016;-78
2022/05/11 09:59:23;;;;;;;11.15;4.82;;;665.90;1561.60;;;;;;5093564;28;20043;-78
2022/05/11 10:01:57;;;;;;;7.15;4.55;;;665.60;1561.60;;;;;;5095121;28;20476;-79
2022/05/11 10:04:30;;;;;;;7.15;4.25;;;665.60;1536.00;;;;;;5093774;28;20085;-79
2022/05/11 10:06:57;;;;;;;8.02;4.00;;;665.60;1638.40;;;;;;5093117;28;20055;-78
2022/05/11 10:09:40;;;;;;;5.35;3.58;;;665.90;1612.80;;;;;;5093314;28;20107;-78
2022/05/11 10:12:09;;;;;;;5.00;4.20;;;666.20;1536.00;;;;;;5093096;28;20248;-78
2022/05/11 10:23:02;;;;;;;5.53;3.92;;;666.50;1484.80;;;;;;5094645;28;20074;-78
2022/05/11 10:25:35;;;;;;;7.03;4.40;;;691.20;1408.00;;;;;;5094433;28;20028;-78
2022/05/11 10:28:14;;;;;;;6.68;3.80;;;691.30;1382.40;;;;;;5093187;28;20127;-77
2022/05/11 10:31:12;;;;;;;7.00;3.90;;;691.20;1459.20;;;;;;5094337;28;20027;-76
2022/05/11 10:34:20;;;;;;;6.10;4.25;;;666.50;1433.60;;;;;;5093786;28;20119;-77
2022/05/11 10:37:07;;;;;;;6.85;3.95;;;691.40;1408.00;;;;;;5031833;28;20040;-78
2022/05/11 10:40:13;;;;;;;7.38;5.15;;;691.50;1408.00;;;;;;5032114;28;20033;-78
2022/05/11 10:43:21;;;;;;;7.18;4.50;;;691.70;1408.00;;;;;;5032171;28;20148;-78
2022/05/11 10:46:05;;;;;;;6.38;3.53;;;691.90;1356.80;;;;;;5015420;28;20643;-79
2022/05/11 10:48:47;;;;;;;7.47;3.97;;;691.80;1382.40;;;;;;5015235;28;20141;-77
2022/05/11 10:51:45;;;;;;;5.20;3.72;;;692.10;1356.80;;;;;;5015041;28;20031;-78
2022/05/11 10:54:26;;;;;;;4.82;3.40;;;716.90;1331.20;;;;;;5031637;28;20038;-77
2022/05/11 10:57:22;;;;;;;8.90;4.20;;;716.90;1280.00;;;;;;5031727;28;20136;-77
2022/05/11 11:00:01;;;;;;;7.97;3.70;;;692.10;1331.20;;;;;;5031528;28;20544;-78
2022/05/11 11:02:39;;;;;;;6.38;3.45;;;717.00;1331.20;;;;;;5035068;28;20052;-77
2022/05/11 11:05:10;;;;;;;6.10;3.70;;;717.00;1305.60;;;;;;5041615;28;20032;-79
2022/05/11 11:07:54;;;;;;;10.20;3.15;;;716.90;1280.00;;;;;;5038918;28;20042;-77
2022/05/11 11:10:43;;;;;;;5.43;3.50;;;716.90;1254.40;;;;;;5028465;28;20029;-78
2022/05/11 11:13:38;;;;;;;5.57;3.45;;;717.00;1228.80;;;;;;4995721;28;20049;-77
2022/05/11 11:16:05;;;;;;;6.22;3.78;;;717.10;1254.40;;;;;;5010869;28;20501;-79
2022/05/11 11:18:39;;;;;;;10.85;3.95;;;717.20;1254.40;;;;;;5029812;28;20065;-76
2022/05/11 11:21:08;;;;;;;4.60;3.13;;;717.10;1280.00;;;;;;5029536;28;20025;-77
2022/05/11 11:23:41;;;;;;;5.95;3.80;;;717.20;1228.80;;;;;;5029780;28;20110;-78
2022/05/11 11:26:30;;;;;;;5.40;3.40;;;717.40;1228.80;;;;;;5012710;28;20060;-81
2022/05/11 11:28:55;;;;;;;6.85;3.78;;;717.50;1203.20;;;;;;5026286;28;20029;-76
2022/05/11 11:31:25;;;;;;;6.63;3.45;;;717.40;1203.20;;;;;;5029274;28;20029;-77
2022/05/11 11:33:56;;;;;;;9.27;3.80;;;717.30;1177.60;;;;;;5029325;28;20029;-77
2022/05/11 11:36:27;;;;;;;9.10;3.50;;;717.20;1203.20;;;;;;5028791;28;20091;-78
2022/05/11 11:38:58;;;;;;;12.02;3.83;;;717.30;1228.80;;;;;;5029485;28;20033;-78
2022/05/11 11:41:31;;;;;;;6.70;3.35;;;717.00;1280.00;;;;;;5029559;28;20480;-78
2022/05/11 11:44:02;;;;;;;5.50;3.30;;;716.80;1228.80;;;;;;5030299;28;20034;-77
2022/05/11 11:46:38;;;;;;;8.85;3.67;;;716.90;1228.80;;;;;;5029944;28;20033;-77
2022/05/11 11:49:27;;;;;;;5.28;3.22;;;717.20;1228.80;;;;;;5032236;28;20103;-78
2022/05/11 11:52:02;;;;;;;7.90;3.58;;;717.20;1203.20;;;;;;5072616;28;20019;-78
2022/05/11 11:54:44;;;;;;;8.00;3.30;;;717.50;1203.20;;;;;;5072541;28;20112;-79
2022/05/11 11:57:14;;;;;;;5.35;3.67;;;717.50;1177.60;;;;;;5072533;28;20074;-79
2022/05/11 11:59:49;;;;;;;7.93;3.40;;;717.70;1177.60;;;;;;5072507;28;20043;-78
2022/05/11 12:02:42;;;;;;;6.72;3.75;;;717.70;1152.00;;;;;;5072427;28;20032;-78
2022/05/11 12:05:22;;;;;;;4.47;3.17;;;742.40;1177.60;;;;;;5087897;28;20039;-78
2022/05/11 12:16:25;;;;;;;5.53;3.45;;;717.50;1228.80;;;;;;5092702;28;20046;-77
2022/05/11 12:18:51;;;;;;;4.68;2.97;;;717.70;1177.60;;;;;;5092344;28;20020;-77
2022/05/11 12:21:34;;;;;;;4.80;3.63;;;717.70;1177.60;;;;;;5091829;28;20025;-76
2022/05/11 12:24:05;;;;;;;6.00;3.80;;;717.60;1203.20;;;;;;5090651;28;20111;-79
2022/05/11 12:26:40;;;;;;;7.30;3.92;;;742.50;1203.20;;;;;;5090826;28;20042;-77
2022/05/11 12:31:59;;;;;;;5.97;3.20;;;742.60;1177.60;;;;;;5088693;28;20066;-78
2022/05/11 12:34:29;;;;;;;6.10;3.53;;;742.60;1177.60;;;;;;5090228;28;20548;-77
2022/05/11 12:36:56;;;;;;;5.63;3.90;;;742.40;1203.20;;;;;;5092173;28;20021;-77
2022/05/11 12:39:36;;;;;;;5.03;3.65;;;742.40;1177.60;;;;;;5095740;28;20077;-76
2022/05/11 12:42:05;;;;;;;6.70;4.00;;;742.50;1203.20;;;;;;5092985;28;20544;-78
2022/05/11 12:44:34;;;;;;;5.75;3.80;;;742.60;1203.20;;;;;;5094444;28;20059;-78
2022/05/11 12:47:01;;;;;;;6.85;3.70;;;742.50;1203.20;;;;;;5094361;28;20038;-78
2022/05/11 12:49:28;;;;;;;11.55;4.38;;;742.50;1203.20;;;;;;5095840;28;20013;-78
2022/05/11 12:51:57;;;;;;;7.55;3.35;;;742.50;1177.60;;;;;;5094567;28;20025;-77
2022/05/11 12:54:27;;;;;;;5.43;3.45;;;742.50;1152.00;;;;;;5093051;28;20070;-79
2022/05/11 12:57:11;;;;;;;5.57;3.60;;;742.50;1152.00;;;;;;5094294;28;20384;-79
2022/05/11 12:59:38;;;;;;;5.97;3.92;;;742.60;1152.00;;;;;;5093662;28;20089;-77
2022/05/11 13:02:16;;;;;;;7.50;3.42;;;742.60;1203.20;;;;;;5092991;28;20594;-79
2022/05/11 13:04:54;;;;;;;7.53;4.45;;;742.60;1203.20;;;;;;5094427;28;20115;-79